Time;durP1;ratioP1;P1;durP2;ratioP2;P2;SDS_P1;SDS_P2;PMS_P1;PMS_P2;Temp;Humidity;BMP_temperature;BMP_pressure;BME280_temperature;BME280_humidity;BME280_pressure;Samples;Min_cycle;Max_cycle;Signal;HPM_P1;HPM_P2
2022/04/16 00:02:12;;;;;;;44.40;32.72;;;26.20;99.90;;;;;;5014576;28;20079;-63
2022/04/16 00:04:42;;;;;;;47.25;31.95;;;26.20;99.90;;;;;;5014392;28;20033;-63
2022/04/16 00:07:09;;;;;;;38.88;31.55;;;26.30;99.90;;;;;;5014740;28;20093;-63
2022/04/16 00:09:36;;;;;;;45.67;34.15;;;26.50;99.90;;;;;;5014633;28;20025;-62
2022/04/16 00:12:02;;;;;;;47.67;32.47;;;26.40;99.90;;;;;;5014520;28;20025;-62
2022/04/16 00:14:29;;;;;;;46.50;33.47;;;26.40;99.90;;;;;;5013939;28;20049;-62
2022/04/16 00:16:57;;;;;;;43.88;30.70;;;26.40;99.90;;;;;;4994598;28;20030;-62
2022/04/16 00:19:24;;;;;;;41.85;32.22;;;26.40;99.90;;;;;;4994853;28;20081;-62
2022/04/16 00:21:50;;;;;;;40.63;29.88;;;26.40;99.90;;;;;;4999217;28;20029;-63
2022/04/16 00:24:17;;;;;;;38.45;28.88;;;26.40;99.90;;;;;;5010092;28;20034;-63
2022/04/16 00:26:46;;;;;;;38.42;29.73;;;26.40;99.90;;;;;;5014368;28;20033;-65
2022/04/16 00:29:13;;;;;;;45.72;29.45;;;26.40;99.90;;;;;;5013517;28;20463;-61
2022/04/16 00:31:39;;;;;;;36.60;29.33;;;26.40;99.90;;;;;;5014014;28;20037;-63
2022/04/16 00:34:06;;;;;;;41.90;29.95;;;26.30;99.90;;;;;;5013903;28;20064;-63
2022/04/16 00:36:33;;;;;;;44.13;30.00;;;26.40;99.90;;;;;;5013448;28;20061;-63
2022/04/16 00:39:00;;;;;;;43.20;29.27;;;26.50;99.90;;;;;;5014065;28;20105;-66
2022/04/16 00:41:26;;;;;;;35.53;27.45;;;26.50;99.90;;;;;;5014265;28;20050;-63
2022/04/16 00:43:54;;;;;;;43.85;30.40;;;26.50;99.90;;;;;;5013389;28;20042;-65
2022/04/16 00:46:20;;;;;;;33.15;26.88;;;26.50;99.90;;;;;;5013775;28;20030;-67
2022/04/16 00:48:47;;;;;;;43.70;28.08;;;26.60;99.90;;;;;;5013550;28;20026;-66
2022/04/16 00:51:14;;;;;;;40.08;29.63;;;26.50;99.90;;;;;;5013636;28;20029;-65
2022/04/16 00:53:41;;;;;;;41.55;28.88;;;26.50;99.90;;;;;;5013817;28;20022;-65
2022/04/16 00:56:11;;;;;;;31.90;26.83;;;26.50;99.90;;;;;;5013837;28;20364;-66
2022/04/16 00:58:40;;;;;;;40.00;30.73;;;26.60;99.90;;;;;;5013409;28;20034;-63
2022/04/16 01:01:07;;;;;;;41.45;28.95;;;26.70;99.90;;;;;;5013282;28;20037;-64
2022/04/16 01:03:34;;;;;;;41.38;29.48;;;26.70;99.90;;;;;;5013489;28;20022;-65
2022/04/16 01:06:01;;;;;;;39.55;28.75;;;26.80;99.90;;;;;;5013503;28;20447;-65
2022/04/16 01:08:28;;;;;;;37.38;28.00;;;26.80;99.90;;;;;;5013525;28;20025;-65
2022/04/16 01:10:55;;;;;;;41.92;29.30;;;26.80;99.90;;;;;;5013542;28;20022;-65
2022/04/16 01:13:21;;;;;;;41.40;30.02;;;26.90;99.90;;;;;;5013502;28;20022;-64
2022/04/16 01:15:48;;;;;;;41.50;31.40;;;26.90;99.90;;;;;;5013286;28;20430;-64
2022/04/16 01:18:16;;;;;;;38.95;28.20;;;27.00;99.90;;;;;;5013547;28;20026;-64
2022/04/16 01:20:44;;;;;;;38.60;29.77;;;27.00;99.90;;;;;;5013132;28;20037;-62
2022/04/16 01:23:11;;;;;;;40.40;31.48;;;27.10;99.90;;;;;;5013385;28;20092;-64
2022/04/16 01:25:37;;;;;;;43.15;32.97;;;27.20;99.90;;;;;;5012096;28;20064;-64
2022/04/16 01:28:05;;;;;;;36.53;28.13;;;27.20;99.90;;;;;;5012133;28;20080;-64
2022/04/16 01:30:32;;;;;;;35.65;28.77;;;27.30;99.90;;;;;;5014164;28;20097;-63
2022/04/16 01:32:59;;;;;;;38.20;28.70;;;27.30;99.90;;;;;;5013522;28;20074;-65
2022/04/16 01:35:26;;;;;;;36.58;28.23;;;27.40;99.90;;;;;;5011294;28;20125;-63
2022/04/16 01:37:52;;;;;;;30.85;25.70;;;27.50;99.90;;;;;;5011546;28;20563;-64
2022/04/16 01:40:20;;;;;;;34.58;28.55;;;27.50;99.90;;;;;;5011801;28;20160;-65
2022/04/16 01:42:47;;;;;;;36.42;27.58;;;27.60;99.90;;;;;;5015574;28;20036;-64
2022/04/16 01:45:17;;;;;;;35.85;24.98;;;27.70;99.90;;;;;;5016097;28;20030;-64
2022/04/16 01:47:44;;;;;;;33.35;26.05;;;27.70;99.90;;;;;;5016161;28;20033;-64
2022/04/16 01:50:12;;;;;;;30.13;22.95;;;27.70;99.90;;;;;;5016858;28;20021;-64
2022/04/16 01:52:41;;;;;;;34.25;26.92;;;27.80;99.90;;;;;;5017073;28;20022;-64
2022/04/16 01:55:08;;;;;;;47.53;27.05;;;27.90;99.90;;;;;;5014447;28;20109;-62
2022/04/16 01:57:36;;;;;;;45.25;26.80;;;27.90;99.90;;;;;;4997063;28;20084;-64
2022/04/16 02:00:07;;;;;;;47.72;26.92;;;27.90;99.90;;;;;;4997236;28;20034;-64
2022/04/16 02:02:35;;;;;;;52.63;29.95;;;28.10;99.90;;;;;;4999276;28;20026;-64
2022/04/16 02:05:02;;;;;;;45.40;29.23;;;28.10;99.90;;;;;;5016589;28;20037;-65
2022/04/16 02:07:28;;;;;;;52.25;29.45;;;28.20;99.90;;;;;;5016890;28;20551;-64
2022/04/16 02:09:55;;;;;;;46.92;27.30;;;28.30;99.90;;;;;;5016628;28;20390;-65
2022/04/16 02:12:22;;;;;;;45.67;26.73;;;28.30;99.90;;;;;;5017137;28;20076;-65
2022/04/16 02:14:48;;;;;;;36.92;25.48;;;28.30;99.90;;;;;;5016570;28;20395;-65
2022/04/16 02:17:15;;;;;;;37.08;24.95;;;28.30;99.90;;;;;;5016271;28;20433;-64
2022/04/16 02:19:43;;;;;;;36.75;23.92;;;28.40;99.90;;;;;;5016234;28;20101;-65
2022/04/16 02:22:11;;;;;;;33.80;24.90;;;28.40;99.90;;;;;;5016397;28;20030;-68
2022/04/16 02:24:39;;;;;;;31.42;24.23;;;28.40;99.90;;;;;;5016311;28;20030;-67
2022/04/16 02:27:06;;;;;;;36.95;24.33;;;28.40;99.90;;;;;;5016015;28;20387;-65
2022/04/16 02:29:34;;;;;;;35.75;25.98;;;28.40;99.90;;;;;;5016279;28;20026;-65
2022/04/16 02:32:03;;;;;;;35.42;26.40;;;28.40;99.90;;;;;;5016669;28;20148;-64
2022/04/16 02:34:29;;;;;;;34.35;26.67;;;28.60;99.90;;;;;;5015963;28;20081;-66
2022/04/16 02:36:58;;;;;;;33.55;25.55;;;28.70;99.90;;;;;;5018899;28;20044;-65
2022/04/16 02:39:25;;;;;;;53.13;24.15;;;28.70;99.90;;;;;;5025708;28;20032;-65
2022/04/16 02:41:52;;;;;;;26.77;22.95;;;28.90;99.90;;;;;;5024219;28;20096;-66
2022/04/16 02:49:40;;;;;;;30.10;21.48;;;29.30;99.90;;;;;;5017750;28;20037;-65
2022/04/16 02:52:08;;;;;;;27.15;21.02;;;29.50;99.90;;;;;;5015298;28;20030;-64
2022/04/16 02:54:35;;;;;;;23.48;20.02;;;29.40;99.90;;;;;;5015882;28;20337;-64
2022/04/16 02:57:03;;;;;;;24.98;21.30;;;29.50;99.90;;;;;;5015868;28;20044;-63
2022/04/16 02:59:30;;;;;;;28.40;23.08;;;29.50;99.90;;;;;;5015816;28;20030;-63
2022/04/16 03:01:56;;;;;;;27.63;21.58;;;29.60;99.90;;;;;;5015304;28;20418;-64
2022/04/16 03:04:24;;;;;;;26.33;20.75;;;29.60;99.90;;;;;;5015375;28;20470;-66
2022/04/16 03:06:51;;;;;;;27.35;19.73;;;29.70;99.90;;;;;;5019701;28;20022;-64
2022/04/16 03:09:17;;;;;;;25.70;20.67;;;29.80;99.90;;;;;;5014821;28;20034;-65
2022/04/16 03:11:44;;;;;;;27.15;19.77;;;29.80;99.90;;;;;;5014593;28;20030;-66
2022/04/16 03:19:45;;;;;;;22.77;19.08;;;30.00;99.90;;;;;;5014394;28;20033;-65
2022/04/16 03:22:13;;;;;;;23.55;19.27;;;30.00;99.90;;;;;;5005229;28;20033;-65
2022/04/16 03:24:40;;;;;;;25.83;16.83;;;30.20;99.90;;;;;;5024688;28;20057;-68
2022/04/16 03:27:07;;;;;;;25.00;17.75;;;30.30;99.90;;;;;;5023545;28;20585;-65
2022/04/16 03:29:34;;;;;;;23.48;17.17;;;30.30;99.90;;;;;;5025216;28;20066;-65
2022/04/16 03:32:01;;;;;;;22.88;18.00;;;30.30;99.90;;;;;;5015246;28;20026;-65
2022/04/16 03:34:28;;;;;;;19.10;17.00;;;30.30;99.90;;;;;;5011966;28;20128;-65
2022/04/16 03:36:54;;;;;;;19.52;16.77;;;30.30;99.90;;;;;;5013405;28;20475;-65
2022/04/16 03:39:21;;;;;;;21.67;15.85;;;30.40;99.90;;;;;;5012511;28;20034;-65
2022/04/16 03:41:48;;;;;;;19.50;15.93;;;30.60;99.90;;;;;;5020619;28;20087;-64
2022/04/16 03:44:15;;;;;;;18.65;16.02;;;30.70;99.90;;;;;;5022228;28;20037;-62
2022/04/16 03:46:42;;;;;;;18.42;15.43;;;30.70;99.90;;;;;;5015690;28;20472;-63
2022/04/16 03:49:09;;;;;;;18.50;16.63;;;30.70;99.90;;;;;;5015464;28;20061;-64
2022/04/16 03:51:35;;;;;;;21.73;17.02;;;30.70;99.90;;;;;;5016768;28;20079;-63
2022/04/16 04:02:22;;;;;;;23.73;18.75;;;30.90;99.90;;;;;;5017894;28;20064;-65
2022/04/16 04:04:49;;;;;;;21.02;17.92;;;30.80;99.90;;;;;;5012640;28;20032;-64
2022/04/16 04:07:16;;;;;;;18.60;16.13;;;30.90;99.90;;;;;;5014248;28;20014;-67
2022/04/16 04:09:43;;;;;;;19.98;15.60;;;30.80;99.90;;;;;;5011859;28;20025;-65
2022/04/16 04:12:13;;;;;;;19.35;16.38;;;30.80;99.90;;;;;;5013526;28;20091;-63
2022/04/16 04:14:42;;;;;;;18.58;15.55;;;30.80;99.90;;;;;;5018892;28;20497;-63
2022/04/16 04:17:09;;;;;;;16.67;14.98;;;30.70;99.90;;;;;;5015667;28;20036;-66
2022/04/16 04:19:40;;;;;;;20.13;14.95;;;30.80;99.90;;;;;;5021823;28;20022;-64
2022/04/16 04:22:08;;;;;;;17.67;15.77;;;30.80;99.90;;;;;;5000739;28;20034;-64
2022/04/16 04:24:37;;;;;;;19.17;15.18;;;30.80;99.90;;;;;;5023045;28;20470;-63
2022/04/16 04:27:04;;;;;;;23.08;17.73;;;30.90;99.90;;;;;;5021839;28;20138;-63
2022/04/16 04:29:31;;;;;;;17.13;15.25;;;31.00;99.90;;;;;;5013179;28;20025;-62
2022/04/16 04:31:58;;;;;;;16.77;15.02;;;31.00;99.90;;;;;;5021990;28;20025;-64
2022/04/16 04:34:26;;;;;;;20.83;15.30;;;31.00;99.90;;;;;;5015291;28;20046;-63
2022/04/16 04:36:53;;;;;;;16.60;14.80;;;31.00;99.90;;;;;;5019815;28;20494;-63
2022/04/16 04:39:19;;;;;;;24.30;18.23;;;31.10;99.90;;;;;;5017366;28;20109;-65
2022/04/16 04:41:46;;;;;;;19.52;17.02;;;31.30;99.90;;;;;;5014086;28;20509;-65
2022/04/16 04:44:14;;;;;;;18.35;16.52;;;31.40;99.90;;;;;;5012234;28;20099;-67
2022/04/16 04:46:42;;;;;;;20.08;15.30;;;31.40;99.90;;;;;;5018277;28;20018;-65
2022/04/16 04:49:11;;;;;;;21.17;16.60;;;31.20;99.90;;;;;;5018480;28;20026;-64
2022/04/16 04:51:40;;;;;;;22.17;16.55;;;31.40;99.90;;;;;;5014713;28;20101;-63
2022/04/16 04:54:07;;;;;;;17.25;15.30;;;31.40;99.90;;;;;;5012617;28;20038;-66
2022/04/16 04:56:37;;;;;;;19.90;15.48;;;31.40;99.90;;;;;;5018010;28;20386;-63
2022/04/16 04:59:04;;;;;;;20.40;16.25;;;31.40;99.90;;;;;;5014343;28;20084;-65
2022/04/16 05:01:31;;;;;;;17.60;15.68;;;31.20;99.90;;;;;;5018110;28;20029;-67
2022/04/16 05:03:58;;;;;;;26.33;19.52;;;31.20;99.90;;;;;;5022554;28;20099;-65
2022/04/16 05:06:24;;;;;;;18.77;15.70;;;31.40;99.90;;;;;;5020350;28;20068;-65
2022/04/16 05:08:51;;;;;;;18.83;15.32;;;31.40;99.90;;;;;;5020840;28;20030;-64
2022/04/16 05:11:18;;;;;;;19.60;15.85;;;31.40;99.90;;;;;;5021037;28;20033;-67
2022/04/16 05:13:45;;;;;;;18.48;15.55;;;31.50;99.90;;;;;;5016416;28;20068;-65
2022/04/16 05:16:12;;;;;;;21.15;15.40;;;31.60;99.90;;;;;;5024400;28;20029;-63
2022/04/16 05:18:40;;;;;;;19.98;16.13;;;31.70;99.90;;;;;;5021949;28;20049;-64
2022/04/16 05:21:07;;;;;;;17.00;15.10;;;31.70;99.90;;;;;;5030890;28;20017;-64
2022/04/16 05:23:35;;;;;;;16.75;14.95;;;31.60;99.90;;;;;;5029329;28;20021;-68
2022/04/16 05:26:02;;;;;;;23.20;16.77;;;31.70;99.90;;;;;;5020606;28;20401;-67
2022/04/16 05:28:29;;;;;;;32.45;21.38;;;31.60;99.90;;;;;;5016975;28;20100;-63
2022/04/16 05:30:58;;;;;;;31.58;22.33;;;31.80;99.90;;;;;;5024219;28;20014;-63
2022/04/16 05:36:11;;;;;;;21.85;17.85;;;31.90;99.90;;;;;;5033372;28;20084;-63
2022/04/16 05:38:38;;;;;;;20.38;15.32;;;32.00;99.90;;;;;;5032933;28;20013;-63
2022/04/16 05:41:05;;;;;;;20.17;16.27;;;32.00;99.90;;;;;;5023997;28;20463;-63
2022/04/16 05:43:32;;;;;;;25.58;16.05;;;32.00;99.90;;;;;;5024506;28;20030;-63
2022/04/16 05:45:59;;;;;;;20.00;16.02;;;32.00;99.90;;;;;;5021368;28;20108;-63
2022/04/16 05:48:26;;;;;;;16.23;14.52;;;32.10;99.20;;;;;;5027308;28;20482;-63
2022/04/16 05:50:52;;;;;;;20.13;14.90;;;31.90;99.60;;;;;;5022999;28;20056;-63
2022/04/16 05:53:22;;;;;;;17.10;14.50;;;32.00;99.20;;;;;;5011786;28;20104;-63
2022/04/16 05:55:52;;;;;;;15.98;14.07;;;32.00;98.80;;;;;;5023825;28;20494;-63
2022/04/16 05:58:19;;;;;;;19.27;15.15;;;32.10;99.60;;;;;;5032817;28;20394;-63
2022/04/16 06:00:46;;;;;;;23.55;15.35;;;32.20;99.40;;;;;;5031102;28;20498;-63
2022/04/16 06:03:13;;;;;;;24.30;16.67;;;32.10;97.00;;;;;;5029839;28;20122;-63
2022/04/16 06:05:39;;;;;;;25.17;16.98;;;32.10;96.50;;;;;;5011389;28;20033;-62
2022/04/16 06:08:06;;;;;;;16.80;13.77;;;32.20;97.40;;;;;;5011664;28;20048;-62
2022/04/16 06:10:36;;;;;;;19.08;14.80;;;32.20;98.00;;;;;;5012444;28;20101;-62
2022/04/16 06:13:02;;;;;;;17.73;14.65;;;32.40;98.60;;;;;;5013052;28;20026;-65
2022/04/16 06:15:31;;;;;;;14.60;13.23;;;32.40;97.70;;;;;;5013241;28;20058;-61
2022/04/16 06:17:58;;;;;;;15.23;13.45;;;32.50;97.90;;;;;;5011386;28;20034;-62
2022/04/16 06:20:25;;;;;;;18.42;14.73;;;32.50;97.80;;;;;;5011852;28;20022;-62
2022/04/16 06:22:51;;;;;;;15.70;13.40;;;32.40;96.90;;;;;;5012179;28;20080;-60
2022/04/16 06:25:18;;;;;;;15.73;12.88;;;32.30;96.70;;;;;;5012326;28;20109;-64
2022/04/16 06:27:45;;;;;;;15.10;13.40;;;32.30;96.00;;;;;;5012979;28;20025;-65
2022/04/16 06:30:12;;;;;;;13.85;12.35;;;32.20;95.80;;;;;;5016060;28;20049;-65
2022/04/16 06:32:39;;;;;;;15.60;12.85;;;32.10;94.80;;;;;;5016282;28;20293;-63
2022/04/16 06:35:06;;;;;;;15.13;13.57;;;32.10;95.40;;;;;;5016440;28;20052;-62
2022/04/16 06:37:35;;;;;;;14.98;13.43;;;32.10;96.30;;;;;;5016270;28;20073;-65
2022/04/16 06:40:02;;;;;;;15.55;13.55;;;32.10;97.30;;;;;;5016295;28;20041;-62
2022/04/16 06:42:29;;;;;;;14.27;12.35;;;32.20;95.50;;;;;;5016117;28;20064;-62
2022/04/16 06:44:56;;;;;;;19.10;15.57;;;32.30;95.10;;;;;;5016369;28;20092;-66
2022/04/16 06:47:23;;;;;;;19.98;16.67;;;32.20;93.70;;;;;;5016244;28;20029;-65
2022/04/16 06:49:50;;;;;;;24.08;16.17;;;32.30;93.50;;;;;;5016016;28;20025;-66
2022/04/16 06:52:19;;;;;;;18.65;15.20;;;32.20;94.00;;;;;;5016629;28;20517;-62
2022/04/16 06:54:46;;;;;;;23.55;13.88;;;32.20;94.00;;;;;;5016015;28;20179;-65
2022/04/16 06:57:14;;;;;;;22.52;17.83;;;32.20;93.60;;;;;;5015918;28;20037;-65
2022/04/16 06:59:41;;;;;;;18.23;14.90;;;32.20;94.10;;;;;;5016907;28;20029;-63
2022/04/16 07:02:09;;;;;;;17.15;14.25;;;32.20;94.00;;;;;;5016325;28;20022;-65
2022/04/16 07:04:37;;;;;;;14.45;12.55;;;32.10;94.30;;;;;;5015924;28;20088;-65
2022/04/16 07:07:04;;;;;;;17.35;14.35;;;32.10;93.80;;;;;;5015644;28;20026;-63
2022/04/16 07:09:31;;;;;;;15.45;13.80;;;32.10;94.40;;;;;;5015534;28;20387;-61
2022/04/16 07:11:58;;;;;;;15.73;13.60;;;32.20;95.00;;;;;;5015793;28;20026;-65
2022/04/16 07:14:24;;;;;;;18.23;15.45;;;32.20;94.50;;;;;;5004247;28;20030;-65
2022/04/16 07:16:51;;;;;;;22.67;15.27;;;32.10;94.90;;;;;;4996561;28;20026;-66
2022/04/16 07:19:18;;;;;;;17.58;14.52;;;32.10;95.20;;;;;;4996553;28;20050;-65
2022/04/16 07:21:44;;;;;;;17.10;13.27;;;32.20;95.20;;;;;;5007960;28;20454;-65
2022/04/16 07:24:11;;;;;;;14.27;12.30;;;32.40;95.00;;;;;;5020715;28;20026;-62
2022/04/16 07:26:37;;;;;;;19.92;14.75;;;32.50;94.10;;;;;;5025684;28;20021;-64
2022/04/16 07:29:04;;;;;;;17.88;13.75;;;32.70;94.90;;;;;;5028044;28;20030;-64
2022/04/16 07:31:31;;;;;;;16.42;13.23;;;32.70;94.20;;;;;;5028724;28;20021;-66
2022/04/16 07:33:58;;;;;;;14.13;12.32;;;32.60;93.10;;;;;;5024332;28;20041;-64
2022/04/16 07:36:24;;;;;;;20.45;14.20;;;32.60;94.00;;;;;;5028169;28;20016;-62
2022/04/16 07:38:51;;;;;;;14.85;13.20;;;32.70;93.40;;;;;;5026373;28;20022;-64
2022/04/16 07:41:18;;;;;;;13.98;12.02;;;32.80;91.70;;;;;;5028837;28;20017;-66
2022/04/16 07:43:44;;;;;;;14.35;10.88;;;32.90;89.80;;;;;;5020186;28;20025;-67
2022/04/16 07:46:11;;;;;;;12.75;11.45;;;33.00;90.30;;;;;;5026413;28;20361;-67
2022/04/16 07:48:37;;;;;;;13.30;11.95;;;32.90;90.10;;;;;;5025561;28;20025;-64
2022/04/16 07:51:05;;;;;;;12.60;11.38;;;32.90;91.10;;;;;;5021025;28;20368;-66
2022/04/16 07:53:31;;;;;;;13.82;11.88;;;32.90;88.50;;;;;;5027946;28;20021;-67
2022/04/16 07:55:58;;;;;;;16.75;13.18;;;32.90;87.10;;;;;;5022695;28;20037;-67
2022/04/16 07:58:25;;;;;;;14.90;11.55;;;32.90;86.70;;;;;;5020071;28;20442;-64
2022/04/16 08:00:52;;;;;;;11.48;10.27;;;32.90;85.50;;;;;;5027326;28;20036;-63
2022/04/16 08:03:18;;;;;;;14.40;11.15;;;33.00;84.20;;;;;;5025195;28;20022;-64
2022/04/16 08:05:45;;;;;;;11.60;10.40;;;33.00;84.10;;;;;;5022346;28;20388;-64
2022/04/16 08:08:12;;;;;;;13.05;10.88;;;33.00;85.70;;;;;;5026079;28;20102;-63
2022/04/16 08:10:38;;;;;;;17.48;10.93;;;33.00;83.50;;;;;;5025688;28;20525;-62
2022/04/16 08:13:07;;;;;;;11.95;10.32;;;32.90;81.50;;;;;;5022666;28;20022;-63
2022/04/16 08:15:35;;;;;;;13.23;11.23;;;32.90;84.60;;;;;;5026088;28;20028;-66
2022/04/16 08:18:02;;;;;;;14.10;10.38;;;32.90;85.50;;;;;;5025220;28;20084;-62
2022/04/16 08:20:29;;;;;;;12.43;11.23;;;33.00;85.10;;;;;;5024080;28;20032;-66
2022/04/16 08:22:55;;;;;;;18.85;14.23;;;33.00;84.10;;;;;;5017424;28;20765;-62
2022/04/16 08:27:51;;;;;;;13.35;11.95;;;33.10;82.50;;;;;;5012381;28;20034;-62
2022/04/16 08:30:18;;;;;;;15.52;11.63;;;33.10;84.00;;;;;;5008386;28;20145;-64
2022/04/16 08:32:46;;;;;;;16.02;12.38;;;33.10;82.10;;;;;;5014711;28;20042;-65
2022/04/16 08:35:15;;;;;;;18.05;14.07;;;33.00;85.70;;;;;;4997206;28;20539;-65
2022/04/16 08:37:43;;;;;;;20.80;17.02;;;33.00;88.00;;;;;;5015656;28;20030;-65
2022/04/16 08:40:10;;;;;;;23.13;16.60;;;32.90;90.30;;;;;;5012362;28;20077;-65
2022/04/16 08:42:38;;;;;;;24.13;19.10;;;32.90;90.80;;;;;;5011598;28;20049;-65
2022/04/16 08:45:08;;;;;;;24.15;18.45;;;32.80;90.50;;;;;;5012860;28;20065;-65
2022/04/16 08:47:35;;;;;;;23.00;18.17;;;32.70;91.30;;;;;;4997249;28;20120;-65
2022/04/16 08:50:05;;;;;;;23.80;20.17;;;32.80;91.50;;;;;;5009139;28;20041;-64
2022/04/16 08:52:34;;;;;;;29.25;20.63;;;32.70;91.80;;;;;;5014458;28;20026;-64
2022/04/16 08:55:03;;;;;;;21.90;18.13;;;32.80;91.00;;;;;;5014755;28;20467;-63
2022/04/16 08:57:30;;;;;;;27.05;21.85;;;32.80;90.70;;;;;;5008726;28;20475;-63
2022/04/16 08:59:57;;;;;;;23.13;20.73;;;32.80;90.60;;;;;;5011823;28;20018;-62
2022/04/16 09:02:26;;;;;;;21.77;19.45;;;32.80;90.20;;;;;;5011232;28;20047;-65
2022/04/16 09:05:08;;;;;;;22.27;16.23;;;32.90;88.00;;;;;;5009961;28;20475;-65
2022/04/16 09:07:56;;;;;;;19.98;14.02;;;32.90;87.80;;;;;;5011783;28;20018;-65
2022/04/16 09:10:26;;;;;;;23.20;17.38;;;33.00;83.80;;;;;;4999472;28;20032;-64
2022/04/16 09:12:56;;;;;;;23.00;18.63;;;33.00;85.90;;;;;;5017638;28;20022;-63
2022/04/16 09:15:24;;;;;;;21.40;17.35;;;33.00;87.60;;;;;;5016012;28;20105;-63
2022/04/16 09:18:02;;;;;;;17.20;13.73;;;33.00;81.40;;;;;;5017441;28;20052;-67
2022/04/16 09:20:31;;;;;;;28.75;21.42;;;33.00;82.40;;;;;;5014242;28;20030;-65
2022/04/16 09:22:58;;;;;;;27.63;21.42;;;33.00;88.80;;;;;;5016498;28;20022;-65
2022/04/16 09:25:30;;;;;;;33.72;22.80;;;33.10;89.90;;;;;;5013549;28;20036;-64
2022/04/16 09:27:58;;;;;;;;;;;33.10;90.90;;;;;;5015819;28;20056;-65
2022/04/16 09:30:28;;;;;;;27.55;21.20;;;33.20;91.30;;;;;;5014739;28;19920;-64
2022/04/16 09:32:57;;;;;;;34.05;19.30;;;33.10;90.30;;;;;;5016009;28;20117;-65
2022/04/16 09:35:35;;;;;;;22.67;17.63;;;33.10;90.40;;;;;;4996777;28;20617;-63
2022/04/16 09:38:06;;;;;;;31.63;16.88;;;33.00;91.50;;;;;;5013374;28;20146;-65
2022/04/16 09:40:35;;;;;;;20.17;17.02;;;33.00;91.70;;;;;;5013372;28;20033;-68
2022/04/16 09:43:04;;;;;;;28.67;19.50;;;33.00;92.10;;;;;;5008501;28;20042;-65
2022/04/16 09:45:31;;;;;;;23.33;16.35;;;33.00;92.10;;;;;;5009296;28;20563;-63
2022/04/16 09:47:59;;;;;;;22.52;17.98;;;33.00;92.30;;;;;;5013903;28;20357;-63
2022/04/16 09:50:27;;;;;;;27.25;16.92;;;32.90;92.80;;;;;;5012768;28;20291;-64
2022/04/16 09:52:58;;;;;;;21.25;16.77;;;33.00;93.10;;;;;;5011457;28;20040;-63
2022/04/16 09:55:26;;;;;;;27.35;15.77;;;32.90;93.50;;;;;;5012581;28;20044;-63
2022/04/16 09:58:14;;;;;;;24.05;17.13;;;32.90;93.40;;;;;;5010003;28;20105;-66
2022/04/16 10:00:41;;;;;;;91.43;59.35;;;32.90;93.60;;;;;;5010803;28;20037;-63
2022/04/16 10:03:08;;;;;;;93.60;58.55;;;32.80;93.10;;;;;;5012537;28;20535;-64
2022/04/16 10:05:35;;;;;;;67.05;40.05;;;32.70;92.70;;;;;;5014988;28;20068;-62
2022/04/16 10:08:03;;;;;;;70.80;41.58;;;32.70;93.50;;;;;;5013969;28;20022;-64
2022/04/16 10:13:04;;;;;;;43.00;24.85;;;32.70;93.80;;;;;;5014557;28;20060;-64
2022/04/16 10:16:00;;;;;;;65.32;31.88;;;32.60;93.20;;;;;;5014594;28;20449;-64
2022/04/16 10:18:27;;;;;;;69.85;34.85;;;32.60;93.40;;;;;;5011821;28;20038;-64
2022/04/16 10:20:57;;;;;;;111.20;46.33;;;32.60;93.30;;;;;;5022665;28;20076;-62
2022/04/16 10:23:27;;;;;;;86.97;37.72;;;32.60;93.00;;;;;;5017512;28;20382;-63
2022/04/16 10:26:10;;;;;;;63.05;31.73;;;32.50;93.50;;;;;;5021698;28;20076;-62
2022/04/16 10:28:59;;;;;;;42.10;25.52;;;32.50;94.10;;;;;;5021287;28;20033;-63
2022/04/16 10:31:28;;;;;;;68.00;39.95;;;32.50;94.40;;;;;;5022664;28;20022;-62
2022/04/16 10:33:58;;;;;;;92.93;49.90;;;32.50;94.20;;;;;;5022455;28;20042;-62
2022/04/16 10:36:27;;;;;;;98.25;52.58;;;32.40;95.00;;;;;;5015437;28;20030;-63
2022/04/16 10:38:54;;;;;;;106.80;61.83;;;32.40;94.70;;;;;;5018826;28;20078;-62
2022/04/16 10:41:22;;;;;;;126.32;69.95;;;32.30;94.80;;;;;;5022087;28;20056;-61
2022/04/16 10:44:00;;;;;;;69.95;44.15;;;32.20;94.80;;;;;;5018967;28;20510;-66
2022/04/16 10:46:52;;;;;;;66.43;40.15;;;32.30;95.20;;;;;;5021911;28;20033;-64
2022/04/16 10:49:21;;;;;;;70.72;45.88;;;32.20;95.40;;;;;;5017904;28;20019;-65
2022/04/16 10:51:50;;;;;;;36.33;27.63;;;32.20;95.60;;;;;;5031868;28;20061;-64
2022/04/16 10:54:31;;;;;;;42.15;30.15;;;32.20;95.60;;;;;;5025443;28;20037;-62
2022/04/16 10:56:58;;;;;;;66.68;43.40;;;32.20;95.50;;;;;;5012818;28;20033;-64
2022/04/16 10:59:39;;;;;;;62.17;47.97;;;32.10;95.40;;;;;;5010617;28;20045;-65
2022/04/16 11:02:20;;;;;;;85.10;55.97;;;32.10;95.50;;;;;;5015440;28;20028;-63
2022/04/16 11:04:57;;;;;;;86.70;58.90;;;32.10;95.40;;;;;;5014223;28;20029;-65
2022/04/16 11:07:26;;;;;;;76.57;50.30;;;32.00;95.50;;;;;;5027899;28;20041;-65
2022/04/16 11:09:53;;;;;;;74.03;48.47;;;32.00;94.80;;;;;;5023233;28;20120;-65
2022/04/16 11:12:23;;;;;;;74.88;51.22;;;32.00;95.70;;;;;;5030961;28;20014;-64
2022/04/16 11:14:52;;;;;;;79.45;50.63;;;32.00;95.80;;;;;;5014624;28;20113;-63
2022/04/16 11:17:19;;;;;;;91.68;57.28;;;32.00;96.00;;;;;;5019358;28;20122;-65
2022/04/16 11:19:48;;;;;;;110.78;70.25;;;32.00;96.30;;;;;;5015831;28;20045;-65
2022/04/16 11:22:15;;;;;;;123.43;80.57;;;32.00;96.10;;;;;;5016577;28;20030;-67
2022/04/16 11:24:44;;;;;;;140.75;90.65;;;32.00;96.10;;;;;;5021610;28;20026;-64
2022/04/16 11:35:24;;;;;;;91.65;49.95;;;31.90;96.60;;;;;;5020672;28;20081;-65
2022/04/16 11:38:01;;;;;;;104.97;54.05;;;31.90;97.00;;;;;;5017146;28;20368;-63
2022/04/16 11:40:31;;;;;;;81.30;43.88;;;31.90;97.00;;;;;;5016758;28;20104;-63
2022/04/16 11:42:59;;;;;;;81.60;47.17;;;31.90;96.90;;;;;;5022180;28;20036;-62
2022/04/16 11:45:25;;;;;;;82.78;47.70;;;31.80;97.10;;;;;;5013338;28;20029;-65
2022/04/16 11:47:52;;;;;;;65.53;40.42;;;31.80;97.10;;;;;;5017162;28;20076;-63
2022/04/16 11:50:19;;;;;;;67.57;40.38;;;31.80;97.20;;;;;;5013816;28;20025;-64
2022/04/16 11:52:52;;;;;;;106.07;75.68;;;31.80;97.50;;;;;;5014593;28;20030;-64
2022/04/16 11:55:19;;;;;;;116.45;77.78;;;31.80;97.80;;;;;;5013907;28;20527;-65
2022/04/16 11:57:52;;;;;;;103.40;61.50;;;31.80;98.10;;;;;;5015310;28;20065;-63
2022/04/16 12:00:22;;;;;;;88.93;55.20;;;31.70;97.80;;;;;;5014407;28;20026;-64
2022/04/16 12:02:55;;;;;;;122.95;84.75;;;31.60;98.10;;;;;;5015796;28;20049;-63
2022/04/16 12:05:28;;;;;;;132.25;84.25;;;31.60;98.80;;;;;;5015340;28;20034;-63
2022/04/16 12:07:55;;;;;;;130.32;82.85;;;31.60;98.90;;;;;;5015465;28;20622;-63
2022/04/16 12:10:24;;;;;;;126.75;83.15;;;31.60;98.80;;;;;;5015434;28;20030;-64
2022/04/16 12:12:53;;;;;;;110.78;71.15;;;31.70;99.00;;;;;;5019090;28;20021;-62
2022/04/16 12:15:24;;;;;;;101.93;67.43;;;31.60;99.50;;;;;;5015677;28;20044;-65
2022/04/16 12:17:52;;;;;;;106.95;72.90;;;31.60;99.70;;;;;;5015597;28;20037;-63
2022/04/16 12:20:20;;;;;;;118.68;77.03;;;31.60;99.90;;;;;;5016699;28;20407;-63
2022/04/16 12:22:52;;;;;;;119.00;76.57;;;31.50;99.70;;;;;;5016042;28;20038;-66
2022/04/16 12:25:21;;;;;;;112.53;71.05;;;31.40;99.90;;;;;;5015428;28;20025;-62
2022/04/16 12:27:52;;;;;;;117.45;68.90;;;31.30;99.60;;;;;;5015267;28;20040;-66
2022/04/16 12:30:20;;;;;;;106.57;67.60;;;31.30;99.90;;;;;;5014513;28;20022;-64
2022/04/16 12:33:01;;;;;;;109.80;70.18;;;31.30;99.90;;;;;;5014178;28;20026;-64
2022/04/16 12:35:29;;;;;;;124.78;75.75;;;31.40;99.90;;;;;;5016236;28;20062;-64
2022/04/16 12:37:58;;;;;;;125.60;80.38;;;31.40;99.90;;;;;;5013538;28;20033;-64
2022/04/16 12:40:26;;;;;;;217.00;139.32;;;31.40;99.90;;;;;;5013599;28;20105;-65
2022/04/16 12:42:56;;;;;;;173.57;115.30;;;31.40;99.90;;;;;;5013391;28;20026;-64
2022/04/16 12:45:24;;;;;;;161.27;107.22;;;31.40;99.90;;;;;;5011338;28;20030;-62
2022/04/16 12:47:51;;;;;;;302.60;206.25;;;31.30;99.90;;;;;;5015745;28;20479;-62
2022/04/16 12:50:18;;;;;;;365.05;242.52;;;31.20;99.90;;;;;;5013797;28;20030;-66
2022/04/16 12:52:45;;;;;;;344.60;225.63;;;31.20;99.90;;;;;;5013423;28;20052;-64
2022/04/16 12:55:14;;;;;;;326.02;213.43;;;31.20;99.90;;;;;;5014203;28;20026;-63
2022/04/16 12:57:43;;;;;;;314.50;202.45;;;31.20;99.90;;;;;;5011680;28;20034;-62
2022/04/16 13:00:11;;;;;;;229.05;144.25;;;31.20;99.90;;;;;;5014021;28;20018;-65
2022/04/16 13:02:41;;;;;;;171.73;105.32;;;31.20;99.90;;;;;;5012617;28;20030;-63
2022/04/16 13:05:16;;;;;;;144.90;88.68;;;31.20;99.90;;;;;;5013156;28;20037;-64
2022/04/16 13:07:45;;;;;;;117.13;72.97;;;31.10;99.90;;;;;;5013320;28;20030;-63